createdAt,value
2018-12-01T00:01:15.425Z,87.92
2018-12-01T00:03:27.571Z,87.28
2018-12-01T00:05:39.764Z,87.36
2018-12-01T00:07:52.119Z,87.88
2018-12-01T00:10:05.171Z,88.14
2018-12-01T00:12:17.329Z,88.16
2018-12-01T00:14:29.522Z,87.41
2018-12-01T00:16:41.741Z,88.08
2018-12-01T00:18:53.901Z,87.67
2018-12-01T00:21:06.089Z,87.40
2018-12-01T00:23:18.308Z,87.39
2018-12-01T00:25:30.772Z,88.20
2018-12-01T00:27:43.306Z,88.03
2018-12-01T00:29:55.807Z,88.02
2018-12-01T00:32:08.320Z,87.16
2018-12-01T00:34:20.816Z,87.99
2018-12-01T00:36:33.406Z,87.43
2018-12-01T00:38:45.843Z,87.16
2018-12-01T00:40:58.512Z,87.01
2018-12-01T00:43:10.991Z,88.01
2018-12-01T00:45:23.468Z,87.39
2018-12-01T00:47:35.804Z,87.66
2018-12-01T00:49:48.301Z,87.17
2018-12-01T00:52:00.714Z,87.12
2018-12-01T00:54:13.187Z,86.92
2018-12-01T00:56:25.749Z,87.72
2018-12-01T00:58:38.283Z,87.58
2018-12-01T01:00:50.839Z,87.09
2018-12-01T01:03:03.446Z,86.59
2018-12-01T01:05:16.050Z,86.84
2018-12-01T01:07:28.601Z,86.13
2018-12-01T01:09:41.123Z,86.39
2018-12-01T01:11:53.642Z,86.04
2018-12-01T01:14:06.186Z,86.20
2018-12-01T01:16:18.802Z,86.35
2018-12-01T01:18:31.354Z,87.03
2018-12-01T01:20:43.625Z,86.58
2018-12-01T01:22:55.808Z,86.52
2018-12-01T01:25:09.199Z,87.19
2018-12-01T01:27:21.377Z,87.44
2018-12-01T01:29:33.568Z,87.04
2018-12-01T01:31:45.754Z,86.75
2018-12-01T01:33:57.956Z,86.77
2018-12-01T01:36:10.173Z,86.86
2018-12-01T01:38:22.379Z,86.93
2018-12-01T01:40:34.574Z,86.58
2018-12-01T01:42:46.789Z,86.97
2018-12-01T01:44:58.978Z,86.57
2018-12-01T01:47:11.184Z,87.58
2018-12-01T01:49:23.386Z,87.01
2018-12-01T01:51:35.585Z,87.42
2018-12-01T01:53:47.819Z,87.88
2018-12-01T01:56:00.016Z,87.25
2018-12-01T01:58:12.198Z,87.26
2018-12-01T02:00:24.449Z,87.26
2018-12-01T02:02:36.655Z,88.32
2018-12-01T02:04:48.868Z,88.17
2018-12-01T02:07:01.017Z,87.63
2018-12-01T02:09:13.253Z,88.43
2018-12-01T02:11:25.413Z,88.36
2018-12-01T02:13:37.589Z,88.69
2018-12-01T02:15:49.765Z,87.63
2018-12-01T02:18:01.940Z,88.00
2018-12-01T02:20:15.899Z,87.96
2018-12-01T02:22:28.091Z,88.00
2018-12-01T02:24:40.262Z,88.43
2018-12-01T02:26:52.413Z,88.30
2018-12-01T02:29:04.692Z,88.67
2018-12-01T02:31:16.914Z,87.92
2018-12-01T02:33:29.109Z,88.76
2018-12-01T02:35:41.291Z,88.55
2018-12-01T02:37:53.474Z,88.73
2018-12-01T02:40:08.183Z,88.93
2018-12-01T02:42:20.342Z,88.18
2018-12-01T02:44:58.528Z,88.87
2018-12-01T02:47:10.680Z,89.02
2018-12-01T02:49:22.860Z,88.16
2018-12-01T02:51:35.040Z,88.08
2018-12-01T02:53:47.230Z,88.22
2018-12-01T02:55:59.433Z,88.72
2018-12-01T02:58:11.605Z,88.81
2018-12-01T03:00:23.816Z,88.80
2018-12-01T03:02:36.232Z,88.52
2018-12-01T03:04:48.408Z,88.61
2018-12-01T03:07:00.593Z,88.38
2018-12-01T03:09:12.753Z,88.30
2018-12-01T03:11:24.979Z,87.54
2018-12-01T03:13:37.161Z,88.13
2018-12-01T03:15:49.346Z,88.00
2018-12-01T03:18:01.569Z,87.21
2018-12-01T03:20:14.546Z,87.75
2018-12-01T03:22:26.728Z,87.76
2018-12-01T03:24:38.928Z,87.39
2018-12-01T03:26:51.088Z,86.59
2018-12-01T03:29:03.229Z,87.37
2018-12-01T03:31:15.401Z,86.70
2018-12-01T03:33:27.561Z,86.60
2018-12-01T03:35:39.732Z,87.16
2018-12-01T03:37:51.985Z,87.37
2018-12-01T03:40:05.224Z,87.46
2018-12-01T03:42:17.378Z,87.53
2018-12-01T03:44:29.564Z,87.37
2018-12-01T03:46:41.732Z,86.99
2018-12-01T03:48:53.918Z,87.37
2018-12-01T03:51:06.093Z,86.82
2018-12-01T03:53:18.270Z,86.61
2018-12-01T03:55:32.552Z,87.48
2018-12-01T03:57:44.701Z,86.75
2018-12-01T03:59:56.884Z,86.60
2018-12-01T04:02:09.088Z,86.67
2018-12-01T04:04:21.281Z,87.32
2018-12-01T04:06:33.453Z,87.20
2018-12-01T04:08:45.613Z,86.85
2018-12-01T04:10:57.785Z,86.21
2018-12-01T04:13:09.952Z,86.91
2018-12-01T04:15:22.235Z,87.27
2018-12-01T04:17:34.402Z,86.52
2018-12-01T04:19:46.588Z,86.73
2018-12-01T04:21:58.754Z,86.90
2018-12-01T04:24:10.928Z,86.09
2018-12-01T04:26:23.097Z,86.61
2018-12-01T04:28:35.316Z,85.66
2018-12-01T04:30:47.496Z,85.72
2018-12-01T04:32:59.742Z,86.62
2018-12-01T04:35:18.937Z,86.28
2018-12-01T04:37:31.165Z,86.49
2018-12-01T04:39:43.356Z,86.74
2018-12-01T04:41:55.517Z,86.24
2018-12-01T04:44:07.718Z,86.83
2018-12-01T04:46:19.968Z,86.11
2018-12-01T04:48:32.192Z,87.29
2018-12-01T04:50:44.417Z,86.87
2018-12-01T04:52:56.643Z,87.76
2018-12-01T04:55:11.932Z,87.32
2018-12-01T04:57:24.144Z,87.54
2018-12-01T04:59:36.320Z,87.63
2018-12-01T05:01:48.497Z,87.71
2018-12-01T05:04:00.665Z,88.34
2018-12-01T05:06:12.833Z,87.40
2018-12-01T05:08:25.001Z,87.52
2018-12-01T05:10:37.229Z,88.20
2018-12-01T05:12:49.477Z,87.78
2018-12-01T05:15:01.616Z,87.52
2018-12-01T05:17:13.896Z,88.25
2018-12-01T05:19:26.053Z,87.60
2018-12-01T05:21:38.256Z,88.23
2018-12-01T05:23:50.416Z,88.22
2018-12-01T05:26:02.622Z,88.17
2018-12-01T05:28:14.772Z,87.36
2018-12-01T05:30:26.969Z,87.79
2018-12-01T05:32:39.135Z,87.54
2018-12-01T05:34:51.288Z,88.28
2018-12-01T05:37:03.457Z,87.64
2018-12-01T05:39:15.620Z,87.69
2018-12-01T05:41:27.800Z,87.64
2018-12-01T05:43:40.074Z,88.20
2018-12-01T05:45:52.229Z,88.36
2018-12-01T05:48:04.838Z,88.52
2018-12-01T05:50:28.978Z,87.79
2018-12-01T05:52:41.164Z,87.81
2018-12-01T05:54:53.315Z,87.63
2018-12-01T05:57:05.507Z,87.67
2018-12-01T05:59:17.696Z,88.27
2018-12-01T06:01:29.889Z,88.53
2018-12-01T06:03:42.072Z,87.54
2018-12-01T06:05:54.240Z,87.50
2018-12-01T06:08:06.777Z,87.49
2018-12-01T06:10:20.783Z,88.36
2018-12-01T06:12:32.936Z,88.31
2018-12-01T06:14:45.095Z,88.04
2018-12-01T06:16:57.258Z,87.86
2018-12-01T06:19:09.436Z,87.63
2018-12-01T06:21:21.580Z,87.43
2018-12-01T06:23:33.771Z,87.21
2018-12-01T06:25:45.965Z,87.62
2018-12-01T06:27:58.149Z,87.33
2018-12-01T06:30:15.061Z,87.25
2018-12-01T06:32:27.240Z,87.86
2018-12-01T06:34:39.411Z,87.87
2018-12-01T06:36:51.614Z,87.85
2018-12-01T06:39:05.889Z,88.25
2018-12-01T06:41:18.054Z,86.83
2018-12-01T06:43:30.274Z,86.69
2018-12-01T06:45:42.461Z,86.78
2018-12-01T06:47:54.700Z,86.72
2018-12-01T06:50:22.336Z,86.59
2018-12-01T06:52:34.501Z,86.35
2018-12-01T06:54:46.670Z,86.47
2018-12-01T06:56:58.866Z,86.83
2018-12-01T06:59:11.121Z,86.62
2018-12-01T07:01:23.307Z,85.74
2018-12-01T07:03:35.526Z,85.81
2018-12-01T07:05:47.714Z,85.79
2018-12-01T07:07:59.884Z,85.95
2018-12-01T07:10:14.176Z,85.20
2018-12-01T07:12:26.354Z,86.04
2018-12-01T07:14:38.529Z,85.36
2018-12-01T07:16:50.722Z,85.46
2018-12-01T07:19:17.681Z,85.94
2018-12-01T07:21:29.877Z,85.16
2018-12-01T07:23:42.020Z,86.04
2018-12-01T07:25:54.210Z,85.33
2018-12-01T07:28:06.412Z,85.16
2018-12-01T07:30:18.636Z,85.85
2018-12-01T07:32:30.800Z,87.76
2018-12-01T07:34:42.993Z,90.11
2018-12-01T07:36:55.250Z,88.33
2018-12-01T07:39:08.309Z,86.49
2018-12-01T07:41:20.493Z,86.03
2018-12-01T07:43:32.725Z,84.95
2018-12-01T07:45:44.919Z,85.26
2018-12-01T07:47:57.092Z,85.38
2018-12-01T07:50:11.663Z,85.21
2018-12-01T07:52:23.858Z,84.45
2018-12-01T07:54:36.060Z,84.82
2018-12-01T07:56:48.233Z,84.96
2018-12-01T07:59:00.424Z,85.49
2018-12-01T08:01:12.629Z,85.70
2018-12-01T08:03:24.884Z,85.76
2018-12-01T08:05:37.086Z,85.56
2018-12-01T08:07:49.300Z,84.59
2018-12-01T08:10:01.549Z,84.73
2018-12-01T08:12:13.804Z,83.76
2018-12-01T08:14:26.057Z,82.02
2018-12-01T08:16:38.273Z,80.30
2018-12-01T08:18:50.545Z,79.32
2018-12-01T08:21:02.792Z,79.06
2018-12-01T08:23:15.347Z,77.69
2018-12-01T08:25:27.545Z,77.30
2018-12-01T08:27:39.817Z,76.65
2018-12-01T08:29:52.084Z,75.64
2018-12-01T08:32:04.958Z,74.51
2018-12-01T08:34:17.164Z,74.13
2018-12-01T08:36:29.371Z,73.74
2018-12-01T08:38:41.565Z,71.32
2018-12-01T08:40:53.821Z,70.19
2018-12-01T08:43:06.044Z,70.18
2018-12-01T08:45:18.278Z,68.93
2018-12-01T08:47:30.506Z,70.26
2018-12-01T08:49:42.735Z,69.20
2018-12-01T08:51:55.066Z,69.14
2018-12-01T08:54:07.269Z,66.48
2018-12-01T08:56:19.509Z,65.58
2018-12-01T08:58:31.730Z,65.34
2018-12-01T09:00:43.996Z,64.75
2018-12-01T09:02:58.780Z,65.24
2018-12-01T09:05:11.041Z,64.08
2018-12-01T09:07:23.278Z,65.06
2018-12-01T09:09:35.481Z,66.40
2018-12-01T09:11:47.761Z,65.16
2018-12-01T09:13:59.980Z,66.09
2018-12-01T09:16:12.249Z,65.80
2018-12-01T09:18:24.453Z,66.26
2018-12-01T09:20:36.673Z,66.68
2018-12-01T09:22:48.947Z,65.66
2018-12-01T09:25:01.157Z,64.11
2018-12-01T09:27:13.417Z,64.99
2018-12-01T09:29:25.647Z,66.06
2018-12-01T09:31:37.873Z,66.61
2018-12-01T09:33:50.116Z,67.25
2018-12-01T09:36:02.334Z,67.43
2018-12-01T09:38:14.538Z,67.97
2018-12-01T09:40:26.763Z,68.51
2018-12-01T09:42:39.056Z,67.56
2018-12-01T09:44:52.143Z,67.67
2018-12-01T09:47:04.592Z,68.29
2018-12-01T09:49:16.813Z,67.24
2018-12-01T09:51:28.990Z,67.06
2018-12-01T09:53:41.213Z,67.07
2018-12-01T09:55:53.377Z,67.91
2018-12-01T09:58:05.996Z,68.02
2018-12-01T10:00:19.695Z,68.46
2018-12-01T10:02:31.898Z,68.54
2018-12-01T10:04:44.113Z,69.86
2018-12-01T10:06:56.341Z,70.60
2018-12-01T10:09:09.185Z,69.46
2018-12-01T10:11:21.455Z,69.03
2018-12-01T10:13:33.677Z,68.99
2018-12-01T10:15:45.897Z,69.39
2018-12-01T10:17:58.132Z,69.70
2018-12-01T10:20:12.867Z,70.43
2018-12-01T10:22:25.042Z,70.56
2018-12-01T10:24:37.247Z,69.77
2018-12-01T10:26:49.479Z,69.69
2018-12-01T10:29:01.720Z,69.91
2018-12-01T10:31:13.932Z,69.89
2018-12-01T10:33:26.155Z,70.50
2018-12-01T10:35:38.374Z,70.23
2018-12-01T10:37:55.024Z,70.54
2018-12-01T10:40:09.418Z,71.93
2018-12-01T10:42:21.629Z,70.17
2018-12-01T10:44:33.848Z,70.72
2018-12-01T10:46:46.385Z,70.28
2018-12-01T10:48:58.572Z,71.46
2018-12-01T10:51:10.762Z,71.42
2018-12-01T10:53:22.977Z,70.67
2018-12-01T10:55:35.331Z,71.14
2018-12-01T10:57:47.520Z,70.52
2018-12-01T10:59:59.755Z,70.63
2018-12-01T11:02:17.589Z,70.91
2018-12-01T11:04:35.510Z,70.42
2018-12-01T11:06:47.763Z,69.97
2018-12-01T11:08:59.972Z,70.80
2018-12-01T11:11:12.179Z,71.10
2018-12-01T11:13:24.418Z,70.08
2018-12-01T11:15:36.665Z,70.56
2018-12-01T11:17:48.906Z,69.37
2018-12-01T11:20:01.215Z,69.25
2018-12-01T11:22:13.454Z,69.43
2018-12-01T11:24:25.688Z,68.96
2018-12-01T11:26:37.891Z,68.21
2018-12-01T11:28:50.224Z,67.54
2018-12-01T11:31:02.455Z,67.75
2018-12-01T11:33:14.731Z,68.73
2018-12-01T11:35:26.935Z,68.48
2018-12-01T11:37:39.199Z,68.93
2018-12-01T11:39:51.382Z,68.04
2018-12-01T11:42:03.741Z,68.85
2018-12-01T11:44:15.990Z,67.86
2018-12-01T11:46:28.279Z,66.84
2018-12-01T11:48:40.585Z,67.13
2018-12-01T11:50:52.864Z,67.51
2018-12-01T11:53:05.188Z,68.04
2018-12-01T11:55:18.793Z,67.99
2018-12-01T11:57:31.012Z,68.40
2018-12-01T11:59:43.246Z,68.28
2018-12-01T12:02:00.252Z,68.75
2018-12-01T12:04:07.759Z,69.26
2018-12-01T12:06:19.966Z,69.51
2018-12-01T12:08:32.236Z,67.59
2018-12-01T12:10:44.488Z,66.24
2018-12-01T12:12:56.722Z,66.42
2018-12-01T12:15:09.971Z,66.38
2018-12-01T12:17:22.161Z,66.38
2018-12-01T12:19:34.451Z,65.88
2018-12-01T12:21:46.697Z,66.59
2018-12-01T12:23:58.941Z,66.68
2018-12-01T12:26:11.207Z,66.00
2018-12-01T12:28:23.449Z,65.53
2018-12-01T12:30:35.714Z,66.09
2018-12-01T12:32:48.269Z,65.06
2018-12-01T12:35:00.495Z,65.58
2018-12-01T12:37:12.736Z,65.39
2018-12-01T12:39:24.996Z,64.97
2018-12-01T12:41:37.237Z,65.60
2018-12-01T12:43:49.429Z,65.87
2018-12-01T12:46:01.665Z,65.68
2018-12-01T12:48:13.856Z,65.96
2018-12-01T12:50:26.887Z,65.31
2018-12-01T12:52:39.117Z,65.76
2018-12-01T12:54:51.318Z,65.82
2018-12-01T12:57:03.603Z,66.59
2018-12-01T12:59:15.785Z,66.42
2018-12-01T13:01:28.012Z,66.61
2018-12-01T13:03:40.228Z,65.45
2018-12-01T13:05:52.529Z,66.11
2018-12-01T13:08:07.269Z,65.99
2018-12-01T13:10:20.786Z,64.46
2018-12-01T13:12:32.992Z,65.00
2018-12-01T13:14:45.212Z,64.98
2018-12-01T13:16:57.453Z,64.98
2018-12-01T13:19:09.677Z,66.35
2018-12-01T13:21:21.905Z,65.46
2018-12-01T13:23:34.100Z,66.53
2018-12-01T13:25:46.293Z,65.81
2018-12-01T13:28:15.982Z,66.25
2018-12-01T13:30:29.746Z,65.52
2018-12-01T13:32:42.011Z,65.27
2018-12-01T13:34:54.205Z,65.78
2018-12-01T13:37:06.509Z,65.84
2018-12-01T13:39:19.753Z,66.25
2018-12-01T13:41:31.069Z,65.50
2018-12-01T13:43:43.414Z,65.42
2018-12-01T13:45:55.637Z,66.62
2018-12-01T13:48:08.351Z,66.24
2018-12-01T13:50:21.043Z,66.21
2018-12-01T13:52:33.276Z,65.47
2018-12-01T13:54:45.555Z,66.82
2018-12-01T13:56:57.750Z,66.42
2018-12-01T13:59:09.963Z,65.31
2018-12-01T14:01:22.221Z,65.31
2018-12-01T14:03:34.470Z,65.47
2018-12-01T14:05:46.697Z,65.77
2018-12-01T14:07:58.937Z,66.27
2018-12-01T14:10:15.163Z,65.96
2018-12-01T14:12:27.370Z,65.16
2018-12-01T14:14:39.591Z,65.86
2018-12-01T14:16:51.846Z,66.04
2018-12-01T14:19:04.197Z,65.67
2018-12-01T14:21:16.446Z,65.56
2018-12-01T14:23:28.695Z,65.66
2018-12-01T14:25:40.947Z,66.38
2018-12-01T14:27:58.744Z,65.70
2018-12-01T14:30:14.933Z,66.51
2018-12-01T14:32:27.141Z,66.94
2018-12-01T14:34:39.433Z,67.27
2018-12-01T14:36:51.628Z,66.76
2018-12-01T14:39:06.624Z,66.91
2018-12-01T14:41:18.837Z,67.85
2018-12-01T14:43:31.110Z,67.69
2018-12-01T14:45:45.300Z,68.38
2018-12-01T14:47:57.533Z,68.39
2018-12-01T14:50:13.253Z,68.62
2018-12-01T14:52:25.478Z,68.88
2018-12-01T14:54:37.787Z,69.67
2018-12-01T14:56:50.961Z,70.27
2018-12-01T14:59:03.241Z,69.97
2018-12-01T15:01:15.526Z,70.71
2018-12-01T15:03:27.759Z,70.00
2018-12-01T15:05:40.689Z,70.91
2018-12-01T15:07:52.919Z,70.50
2018-12-01T15:10:07.940Z,71.15
2018-12-01T15:12:20.152Z,71.33
2018-12-01T15:14:32.377Z,71.07
2018-12-01T15:16:44.661Z,71.05
2018-12-01T15:18:57.743Z,70.99
2018-12-01T15:21:13.921Z,70.99
2018-12-01T15:23:26.194Z,71.96
2018-12-01T15:25:38.458Z,73.36
2018-12-01T15:27:50.710Z,71.52
2018-12-01T15:30:04.880Z,71.20
2018-12-01T15:32:17.129Z,71.77
2018-12-01T15:34:29.356Z,71.89
2018-12-01T15:36:41.565Z,71.29
2018-12-01T15:38:53.797Z,71.09
2018-12-01T15:41:06.088Z,71.59
2018-12-01T15:43:18.382Z,72.51
2018-12-01T15:45:30.597Z,73.03
2018-12-01T15:47:42.947Z,72.53
2018-12-01T15:49:55.173Z,72.98
2018-12-01T15:52:07.365Z,73.37
2018-12-01T15:54:19.669Z,74.20
2018-12-01T15:56:31.859Z,73.97
2018-12-01T15:58:45.856Z,74.98
2018-12-01T16:00:58.130Z,74.30
2018-12-01T16:03:10.396Z,75.13
2018-12-01T16:05:23.237Z,75.19
2018-12-01T16:07:35.546Z,74.61
2018-12-01T16:09:47.788Z,74.89
2018-12-01T16:11:59.980Z,74.92
2018-12-01T16:14:12.356Z,75.25
2018-12-01T16:16:24.661Z,75.42
2018-12-01T16:18:36.956Z,76.35
2018-12-01T16:20:49.226Z,76.73
2018-12-01T16:23:01.480Z,76.78
2018-12-01T16:25:14.791Z,76.26
2018-12-01T16:27:26.960Z,75.98
2018-12-01T16:29:39.205Z,76.76
2018-12-01T16:31:51.460Z,76.26
2018-12-01T16:34:03.667Z,77.01
2018-12-01T16:36:17.803Z,75.94
2018-12-01T16:38:31.725Z,76.68
2018-12-01T16:40:47.930Z,76.57
2018-12-01T16:43:01.144Z,75.84
2018-12-01T16:45:14.193Z,76.50
2018-12-01T16:47:26.465Z,75.38
2018-12-01T16:49:38.657Z,75.47
2018-12-01T16:51:50.968Z,74.63
2018-12-01T16:54:03.227Z,74.25
2018-12-01T16:56:15.475Z,72.98
2018-12-01T16:58:27.673Z,73.80
2018-12-01T17:00:40.290Z,72.31
2018-12-01T17:02:54.801Z,72.46
2018-12-01T17:05:08.529Z,73.53
2018-12-01T17:07:20.784Z,72.53
2018-12-01T17:09:33.056Z,72.52
2018-12-01T17:11:45.341Z,72.33
2018-12-01T17:13:57.632Z,72.10
2018-12-01T17:16:09.869Z,71.34
2018-12-01T17:18:22.147Z,71.16
2018-12-01T17:20:34.371Z,71.44
2018-12-01T17:22:51.127Z,71.10
2018-12-01T17:25:04.715Z,71.77
2018-12-01T17:27:17.009Z,71.13
2018-12-01T17:29:29.220Z,70.97
2018-12-01T17:31:41.475Z,71.02
2018-12-01T17:33:53.709Z,70.56
2018-12-01T17:36:05.890Z,70.37
2018-12-01T17:38:19.224Z,70.31
2018-12-01T17:40:39.935Z,70.39
2018-12-01T17:42:54.009Z,71.08
2018-12-01T17:45:08.618Z,70.28
2018-12-01T17:47:20.828Z,71.05
2018-12-01T17:49:33.124Z,70.34
2018-12-01T17:51:45.366Z,70.50
2018-12-01T17:54:01.638Z,71.75
2018-12-01T17:56:13.833Z,70.88
2018-12-01T17:58:26.125Z,71.47
2018-12-01T18:00:39.204Z,71.07
2018-12-01T18:02:58.893Z,71.49
2018-12-01T18:05:13.424Z,71.81
2018-12-01T18:07:25.655Z,71.69
2018-12-01T18:09:37.934Z,72.40
2018-12-01T18:11:50.144Z,72.05
2018-12-01T18:14:02.346Z,72.46
2018-12-01T18:16:14.586Z,73.51
2018-12-01T18:18:32.956Z,73.61
2018-12-01T18:20:45.386Z,74.74
2018-12-01T18:22:58.889Z,74.53
2018-12-01T18:25:11.111Z,75.33
2018-12-01T18:27:23.396Z,75.03
2018-12-01T18:29:35.601Z,75.14
2018-12-01T18:31:47.821Z,75.58
2018-12-01T18:34:03.866Z,75.47
2018-12-01T18:36:16.128Z,75.23
2018-12-01T18:38:28.425Z,76.07
2018-12-01T18:40:40.645Z,75.21
2018-12-01T18:42:52.913Z,75.92
2018-12-01T18:45:08.277Z,76.13
2018-12-01T18:47:20.490Z,76.47
2018-12-01T18:49:32.703Z,75.92
2018-12-01T18:51:44.974Z,75.90
2018-12-01T18:53:57.196Z,76.66
2018-12-01T18:56:09.429Z,76.06
2018-12-01T18:58:21.679Z,76.86
2018-12-01T19:00:43.573Z,76.26
2018-12-01T19:02:55.838Z,76.37
2018-12-01T19:05:08.172Z,76.18
2018-12-01T19:07:20.368Z,76.25
2018-12-01T19:09:32.600Z,76.97
2018-12-01T19:11:44.855Z,76.88
2018-12-01T19:13:57.853Z,77.77
2018-12-01T19:16:10.120Z,75.73
2018-12-01T19:18:22.367Z,76.11
2018-12-01T19:20:34.593Z,75.21
2018-12-01T19:22:47.899Z,75.45
2018-12-01T19:25:01.098Z,75.75
2018-12-01T19:27:12.445Z,76.06
2018-12-01T19:29:24.687Z,75.79
2018-12-01T19:31:37.036Z,74.85
2018-12-01T19:33:49.310Z,75.07
2018-12-01T19:36:01.605Z,75.41
2018-12-01T19:38:15.450Z,74.69
2018-12-01T19:40:28.953Z,74.28
2018-12-01T19:42:41.064Z,74.18
2018-12-01T19:44:53.349Z,74.08
2018-12-01T19:47:05.797Z,74.65
2018-12-01T19:49:18.022Z,73.66
2018-12-01T19:51:30.289Z,73.72
2018-12-01T19:53:42.580Z,73.49
2018-12-01T19:55:54.804Z,73.14
2018-12-01T19:58:09.493Z,73.58
2018-12-01T20:00:23.937Z,72.90
2018-12-01T20:02:36.153Z,72.51
2018-12-01T20:04:48.383Z,72.19
2018-12-01T20:07:00.602Z,72.26
2018-12-01T20:09:12.853Z,72.10
2018-12-01T20:11:25.065Z,72.29
2018-12-01T20:13:40.786Z,71.83
2018-12-01T20:15:59.360Z,72.20
2018-12-01T20:18:17.437Z,71.65
2018-12-01T20:20:29.679Z,71.85
2018-12-01T20:22:41.890Z,70.60
2018-12-01T20:24:54.144Z,71.18
2018-12-01T20:27:06.384Z,70.35
2018-12-01T20:29:18.615Z,70.80
2018-12-01T20:31:30.850Z,70.35
2018-12-01T20:33:43.074Z,70.19
2018-12-01T20:36:16.848Z,70.76
2018-12-01T20:38:51.971Z,69.92
2018-12-01T20:41:04.622Z,69.75
2018-12-01T20:43:16.903Z,69.91
2018-12-01T20:45:29.132Z,69.17
2018-12-01T20:47:41.478Z,69.25
2018-12-01T20:49:53.670Z,69.57
2018-12-01T20:52:06.211Z,68.95
2018-12-01T20:54:27.717Z,67.35
2018-12-01T20:56:40.278Z,68.52
2018-12-01T20:58:52.509Z,68.11
2018-12-01T21:01:05.158Z,68.50
2018-12-01T21:03:17.418Z,67.53
2018-12-01T21:05:29.652Z,67.63
2018-12-01T21:07:41.895Z,68.06
2018-12-01T21:09:54.100Z,67.14
2018-12-01T21:12:07.688Z,67.32
2018-12-01T21:14:19.962Z,67.45
2018-12-01T21:16:32.189Z,66.81
2018-12-01T21:18:44.447Z,66.88
2018-12-01T21:20:56.709Z,67.68
2018-12-01T21:23:08.965Z,67.31
2018-12-01T21:25:23.001Z,66.84
2018-12-01T21:27:35.207Z,66.58
2018-12-01T21:29:47.416Z,67.80
2018-12-01T21:31:59.626Z,67.41
2018-12-01T21:34:11.957Z,66.79
2018-12-01T21:36:24.154Z,67.03
2018-12-01T21:38:36.398Z,67.83
2018-12-01T21:40:48.679Z,66.81
2018-12-01T21:43:00.865Z,67.25
2018-12-01T21:45:14.426Z,67.43
2018-12-01T21:47:26.635Z,67.11
2018-12-01T21:49:38.922Z,67.04
2018-12-01T21:51:51.881Z,67.23
2018-12-01T21:54:04.535Z,67.03
2018-12-01T21:56:16.782Z,66.15
2018-12-01T21:58:29.043Z,66.22
2018-12-01T22:00:45.741Z,66.58
2018-12-01T22:02:59.588Z,65.49
2018-12-01T22:05:13.624Z,66.45
2018-12-01T22:07:25.913Z,66.54
2018-12-01T22:09:38.167Z,65.58
2018-12-01T22:11:50.465Z,65.95
2018-12-01T22:14:02.714Z,66.49
2018-12-01T22:16:15.034Z,65.87
2018-12-01T22:18:27.265Z,65.94
2018-12-01T22:20:39.452Z,66.60
2018-12-01T22:22:51.912Z,65.75
2018-12-01T22:25:05.343Z,66.07
2018-12-01T22:27:17.545Z,66.43
2018-12-01T22:29:29.821Z,66.21
2018-12-01T22:31:42.034Z,66.27
2018-12-01T22:33:54.226Z,66.72
2018-12-01T22:36:06.485Z,65.99
2018-12-01T22:38:18.730Z,65.77
2018-12-01T22:40:33.455Z,66.75
2018-12-01T22:42:45.781Z,66.33
2018-12-01T22:44:58.013Z,66.22
2018-12-01T22:47:10.284Z,66.15
2018-12-01T22:49:22.485Z,66.55
2018-12-01T22:51:34.658Z,66.82
2018-12-01T22:53:46.921Z,66.82
2018-12-01T22:55:59.097Z,66.30
2018-12-01T22:58:12.303Z,66.81
2018-12-01T23:00:34.428Z,66.13
2018-12-01T23:02:46.699Z,66.29
2018-12-01T23:04:58.937Z,66.78
2018-12-01T23:07:11.137Z,65.83
2018-12-01T23:09:23.541Z,66.86
2018-12-01T23:11:35.988Z,65.80
2018-12-01T23:13:48.405Z,66.59
2018-12-01T23:16:00.651Z,66.53
2018-12-01T23:18:14.392Z,65.70
2018-12-01T23:20:26.636Z,65.95
2018-12-01T23:22:38.869Z,65.26
2018-12-01T23:24:51.110Z,65.16
2018-12-01T23:27:03.314Z,65.31
2018-12-01T23:29:15.565Z,65.19
2018-12-01T23:31:27.990Z,65.66
2018-12-01T23:33:40.239Z,64.61
2018-12-01T23:35:52.469Z,64.29
2018-12-01T23:38:04.932Z,64.45
2018-12-01T23:40:17.212Z,64.79
2018-12-01T23:42:29.560Z,63.85
2018-12-01T23:44:41.818Z,64.67
2018-12-01T23:46:54.067Z,64.35
2018-12-01T23:49:06.232Z,62.83
2018-12-01T23:51:18.472Z,62.61
2018-12-01T23:53:30.695Z,62.31
2018-12-01T23:55:42.943Z,62.76
2018-12-01T23:57:55.152Z,63.44
